sensor_id;sensor_type;location;lat;lon;timestamp;pressure;altitude;pressure_sealevel;temperature;humidity
27210;BME280;14721;42.668;23.386;2023-04-01T00:02:02;94414.03;;;10.96;67.85
27210;BME280;14721;42.668;23.386;2023-04-01T00:04:29;94415.13;;;10.84;67.61
27210;BME280;14721;42.668;23.386;2023-04-01T00:07:05;94416.63;;;10.67;68.30
27210;BME280;14721;42.668;23.386;2023-04-01T00:09:32;94421.56;;;10.62;68.94
27210;BME280;14721;42.668;23.386;2023-04-01T00:12:04;94420.38;;;10.55;69.35
27210;BME280;14721;42.668;23.386;2023-04-01T00:14:34;94418.56;;;10.16;70.67
27210;BME280;14721;42.668;23.386;2023-04-01T00:17:08;94417.78;;;10.25;70.98
27210;BME280;14721;42.668;23.386;2023-04-01T00:19:39;94418.38;;;10.08;71.09
27210;BME280;14721;42.668;23.386;2023-04-01T00:22:08;94422.66;;;10.20;71.25
27210;BME280;14721;42.668;23.386;2023-04-01T00:24:38;94433.59;;;9.97;71.91
27210;BME280;14721;42.668;23.386;2023-04-01T00:27:10;94423.44;;;10.11;72.37
27210;BME280;14721;42.668;23.386;2023-04-01T00:29:46;94423.00;;;10.36;71.76
27210;BME280;14721;42.668;23.386;2023-04-01T00:32:19;94426.00;;;10.52;70.79
27210;BME280;14721;42.668;23.386;2023-04-01T00:34:50;94416.78;;;10.66;70.43
27210;BME280;14721;42.668;23.386;2023-04-01T00:37:34;94415.63;;;10.59;69.97
27210;BME280;14721;42.668;23.386;2023-04-01T00:40:00;94421.56;;;10.62;70.83
27210;BME280;14721;42.668;23.386;2023-04-01T00:42:32;94408.47;;;10.59;70.60
27210;BME280;14721;42.668;23.386;2023-04-01T00:48:06;94394.47;;;10.37;72.78
27210;BME280;14721;42.668;23.386;2023-04-01T00:50:36;94380.63;;;9.92;74.45
27210;BME280;14721;42.668;23.386;2023-04-01T00:53:05;94363.06;;;9.69;77.41
27210;BME280;14721;42.668;23.386;2023-04-01T00:55:36;94371.00;;;9.80;79.27
27210;BME280;14721;42.668;23.386;2023-04-01T00:58:08;94371.75;;;9.62;78.84
27210;BME280;14721;42.668;23.386;2023-04-01T01:00:38;94377.28;;;9.70;79.05
27210;BME280;14721;42.668;23.386;2023-04-01T01:03:04;94369.56;;;9.76;79.21
27210;BME280;14721;42.668;23.386;2023-04-01T01:05:42;94360.69;;;9.66;78.60
27210;BME280;14721;42.668;23.386;2023-04-01T01:08:23;94358.72;;;9.68;79.23
27210;BME280;14721;42.668;23.386;2023-04-01T01:10:56;94357.84;;;9.88;78.37
27210;BME280;14721;42.668;23.386;2023-04-01T01:13:41;94349.13;;;10.07;77.10
27210;BME280;14721;42.668;23.386;2023-04-01T01:16:15;94347.19;;;10.18;77.49
27210;BME280;14721;42.668;23.386;2023-04-01T01:22:21;94340.63;;;10.02;74.14
27210;BME280;14721;42.668;23.386;2023-04-01T01:28:15;94340.91;;;9.99;72.62
27210;BME280;14721;42.668;23.386;2023-04-01T01:33:49;94342.13;;;10.15;73.13
27210;BME280;14721;42.668;23.386;2023-04-01T01:36:20;94327.53;;;10.19;71.60
27210;BME280;14721;42.668;23.386;2023-04-01T01:38:50;94331.63;;;10.23;71.50
27210;BME280;14721;42.668;23.386;2023-04-01T01:41:25;94308.00;;;10.28;70.90
27210;BME280;14721;42.668;23.386;2023-04-01T01:44:01;94305.50;;;10.36;70.40
27210;BME280;14721;42.668;23.386;2023-04-01T01:46:34;94302.56;;;10.39;69.81
27210;BME280;14721;42.668;23.386;2023-04-01T01:49:20;94295.00;;;10.44;69.22
27210;BME280;14721;42.668;23.386;2023-04-01T01:51:46;94305.44;;;10.76;68.77
27210;BME280;14721;42.668;23.386;2023-04-01T01:54:18;94308.84;;;10.97;68.67
27210;BME280;14721;42.668;23.386;2023-04-01T01:57:02;94293.19;;;11.02;67.22
27210;BME280;14721;42.668;23.386;2023-04-01T01:59:38;94295.59;;;11.05;65.66
27210;BME280;14721;42.668;23.386;2023-04-01T02:02:10;94269.56;;;10.97;67.72
27210;BME280;14721;42.668;23.386;2023-04-01T02:04:44;94291.81;;;10.98;66.47
27210;BME280;14721;42.668;23.386;2023-04-01T02:07:18;94294.47;;;10.98;64.76
27210;BME280;14721;42.668;23.386;2023-04-01T02:09:54;94283.78;;;11.07;65.17
27210;BME280;14721;42.668;23.386;2023-04-01T02:12:26;94298.97;;;11.07;64.93
27210;BME280;14721;42.668;23.386;2023-04-01T02:15:01;94280.13;;;11.08;65.48
27210;BME280;14721;42.668;23.386;2023-04-01T02:17:39;94287.19;;;11.00;65.30
27210;BME280;14721;42.668;23.386;2023-04-01T02:20:28;94279.84;;;11.21;65.87
27210;BME280;14721;42.668;23.386;2023-04-01T02:22:58;94278.56;;;11.25;68.45
27210;BME280;14721;42.668;23.386;2023-04-01T02:25:34;94274.78;;;11.08;69.19
27210;BME280;14721;42.668;23.386;2023-04-01T02:28:03;94269.16;;;10.92;68.15
27210;BME280;14721;42.668;23.386;2023-04-01T02:30:51;94254.81;;;11.03;68.49
27210;BME280;14721;42.668;23.386;2023-04-01T02:33:19;94261.22;;;11.29;66.55
27210;BME280;14721;42.668;23.386;2023-04-01T02:35:54;94271.63;;;11.51;68.05
27210;BME280;14721;42.668;23.386;2023-04-01T02:38:24;94273.84;;;11.65;68.38
27210;BME280;14721;42.668;23.386;2023-04-01T02:41:00;94264.56;;;11.50;69.73
27210;BME280;14721;42.668;23.386;2023-04-01T02:43:39;94278.56;;;11.34;68.67
27210;BME280;14721;42.668;23.386;2023-04-01T02:46:07;94277.59;;;11.16;68.64
27210;BME280;14721;42.668;23.386;2023-04-01T02:48:38;94296.00;;;11.00;69.15
27210;BME280;14721;42.668;23.386;2023-04-01T02:51:15;94301.75;;;10.67;70.74
27210;BME280;14721;42.668;23.386;2023-04-01T02:53:46;94276.59;;;10.51;71.99
27210;BME280;14721;42.668;23.386;2023-04-01T02:56:20;94301.75;;;10.48;71.05
27210;BME280;14721;42.668;23.386;2023-04-01T02:58:49;94313.69;;;10.44;71.17
27210;BME280;14721;42.668;23.386;2023-04-01T03:01:17;94313.25;;;10.39;71.37
27210;BME280;14721;42.668;23.386;2023-04-01T03:03:46;94317.88;;;10.28;71.56
27210;BME280;14721;42.668;23.386;2023-04-01T03:06:22;94297.09;;;10.01;72.00
27210;BME280;14721;42.668;23.386;2023-04-01T03:08:48;94318.50;;;10.11;72.28
27210;BME280;14721;42.668;23.386;2023-04-01T03:11:14;94312.34;;;10.20;72.32
27210;BME280;14721;42.668;23.386;2023-04-01T03:13:40;94320.81;;;10.25;71.26
27210;BME280;14721;42.668;23.386;2023-04-01T03:16:09;94308.47;;;10.33;71.32
27210;BME280;14721;42.668;23.386;2023-04-01T03:18:38;94315.06;;;10.39;70.88
27210;BME280;14721;42.668;23.386;2023-04-01T03:21:36;94316.91;;;10.38;71.10
27210;BME280;14721;42.668;23.386;2023-04-01T03:24:05;94330.22;;;10.29;71.92
27210;BME280;14721;42.668;23.386;2023-04-01T03:26:38;94339.31;;;10.17;72.72
27210;BME280;14721;42.668;23.386;2023-04-01T03:29:12;94324.47;;;10.33;72.43
27210;BME280;14721;42.668;23.386;2023-04-01T03:31:43;94337.81;;;10.33;72.62
27210;BME280;14721;42.668;23.386;2023-04-01T03:34:12;94341.09;;;10.37;72.39
27210;BME280;14721;42.668;23.386;2023-04-01T03:36:39;94329.00;;;10.42;72.57
27210;BME280;14721;42.668;23.386;2023-04-01T03:39:08;94322.53;;;10.45;72.09
27210;BME280;14721;42.668;23.386;2023-04-01T03:41:37;94313.00;;;10.52;72.50
27210;BME280;14721;42.668;23.386;2023-04-01T03:44:08;94328.03;;;10.53;72.38
27210;BME280;14721;42.668;23.386;2023-04-01T03:46:35;94306.78;;;10.42;74.13
27210;BME280;14721;42.668;23.386;2023-04-01T03:49:02;94295.28;;;10.41;75.51
27210;BME280;14721;42.668;23.386;2023-04-01T03:51:35;94288.41;;;10.48;75.30
27210;BME280;14721;42.668;23.386;2023-04-01T03:54:05;94281.09;;;10.60;74.60
27210;BME280;14721;42.668;23.386;2023-04-01T03:56:31;94272.81;;;10.72;74.07
27210;BME280;14721;42.668;23.386;2023-04-01T03:59:06;94249.19;;;10.87;72.41
27210;BME280;14721;42.668;23.386;2023-04-01T04:01:34;94241.31;;;10.95;71.23
27210;BME280;14721;42.668;23.386;2023-04-01T04:04:01;94251.16;;;10.75;71.89
27210;BME280;14721;42.668;23.386;2023-04-01T04:06:30;94196.03;;;10.55;71.56
27210;BME280;14721;42.668;23.386;2023-04-01T04:08:56;94214.47;;;10.77;70.56
27210;BME280;14721;42.668;23.386;2023-04-01T04:11:22;94202.09;;;10.67;69.65
27210;BME280;14721;42.668;23.386;2023-04-01T04:13:48;94220.50;;;10.79;68.53
27210;BME280;14721;42.668;23.386;2023-04-01T04:16:14;94207.72;;;10.83;68.65
27210;BME280;14721;42.668;23.386;2023-04-01T04:18:43;94215.00;;;10.81;68.76
27210;BME280;14721;42.668;23.386;2023-04-01T04:21:13;94204.19;;;10.92;68.40
27210;BME280;14721;42.668;23.386;2023-04-01T04:23:40;94175.38;;;10.76;69.02
27210;BME280;14721;42.668;23.386;2023-04-01T04:26:11;94193.22;;;10.85;69.47
27210;BME280;14721;42.668;23.386;2023-04-01T04:28:38;94185.63;;;10.81;69.88
27210;BME280;14721;42.668;23.386;2023-04-01T04:31:07;94175.09;;;10.60;69.97
27210;BME280;14721;42.668;23.386;2023-04-01T04:33:34;94193.25;;;10.76;70.14
27210;BME280;14721;42.668;23.386;2023-04-01T04:36:12;94190.44;;;10.77;70.33
27210;BME280;14721;42.668;23.386;2023-04-01T04:38:44;94177.50;;;10.73;70.10
27210;BME280;14721;42.668;23.386;2023-04-01T04:41:11;94157.09;;;10.72;70.69
27210;BME280;14721;42.668;23.386;2023-04-01T04:43:41;94156.97;;;10.64;70.70
27210;BME280;14721;42.668;23.386;2023-04-01T04:46:09;94162.72;;;10.40;71.28
27210;BME280;14721;42.668;23.386;2023-04-01T04:48:42;94158.78;;;10.54;72.14
27210;BME280;14721;42.668;23.386;2023-04-01T04:51:16;94128.03;;;10.59;70.72
27210;BME280;14721;42.668;23.386;2023-04-01T04:53:49;94146.13;;;10.75;71.07
27210;BME280;14721;42.668;23.386;2023-04-01T04:56:27;94128.13;;;10.77;70.47
27210;BME280;14721;42.668;23.386;2023-04-01T04:58:55;94127.00;;;10.79;69.62
27210;BME280;14721;42.668;23.386;2023-04-01T05:01:25;94136.16;;;10.77;69.83
27210;BME280;14721;42.668;23.386;2023-04-01T05:03:54;94123.66;;;10.68;70.43
27210;BME280;14721;42.668;23.386;2023-04-01T05:06:31;94131.03;;;10.93;69.41
27210;BME280;14721;42.668;23.386;2023-04-01T05:09:00;94139.63;;;10.87;68.30
27210;BME280;14721;42.668;23.386;2023-04-01T05:11:31;94129.34;;;11.01;68.71
27210;BME280;14721;42.668;23.386;2023-04-01T05:13:59;94128.13;;;11.23;69.01
27210;BME280;14721;42.668;23.386;2023-04-01T05:16:30;94119.38;;;11.30;68.39
27210;BME280;14721;42.668;23.386;2023-04-01T05:18:58;94114.44;;;11.35;68.03
27210;BME280;14721;42.668;23.386;2023-04-01T05:21:29;94127.91;;;11.43;67.21
27210;BME280;14721;42.668;23.386;2023-04-01T05:23:58;94118.50;;;11.39;67.54
27210;BME280;14721;42.668;23.386;2023-04-01T05:26:28;94109.31;;;11.15;67.77
27210;BME280;14721;42.668;23.386;2023-04-01T05:28:57;94102.56;;;11.11;67.15
27210;BME280;14721;42.668;23.386;2023-04-01T05:31:25;94084.81;;;11.19;67.02
27210;BME280;14721;42.668;23.386;2023-04-01T05:34:00;94103.34;;;11.58;65.76
27210;BME280;14721;42.668;23.386;2023-04-01T05:36:30;94094.44;;;11.67;65.27
27210;BME280;14721;42.668;23.386;2023-04-01T05:39:03;94096.47;;;11.82;65.33
27210;BME280;14721;42.668;23.386;2023-04-01T05:41:56;94102.88;;;11.72;65.54
27210;BME280;14721;42.668;23.386;2023-04-01T05:44:26;94105.41;;;11.73;66.15
27210;BME280;14721;42.668;23.386;2023-04-01T05:47:13;94095.31;;;11.58;66.34
27210;BME280;14721;42.668;23.386;2023-04-01T05:49:48;94097.75;;;11.51;64.94
27210;BME280;14721;42.668;23.386;2023-04-01T05:52:17;94094.78;;;11.54;65.50
27210;BME280;14721;42.668;23.386;2023-04-01T05:54:54;94101.97;;;11.81;65.67
27210;BME280;14721;42.668;23.386;2023-04-01T05:57:21;94094.97;;;12.15;64.62
27210;BME280;14721;42.668;23.386;2023-04-01T05:59:53;94095.34;;;12.98;61.70
27210;BME280;14721;42.668;23.386;2023-04-01T06:02:20;94061.88;;;14.35;56.89
27210;BME280;14721;42.668;23.386;2023-04-01T06:05:08;94057.34;;;15.54;52.05
27210;BME280;14721;42.668;23.386;2023-04-01T06:07:40;94081.13;;;16.50;49.55
27210;BME280;14721;42.668;23.386;2023-04-01T06:10:18;94082.75;;;16.97;47.47
27210;BME280;14721;42.668;23.386;2023-04-01T06:21:26;94076.84;;;14.69;52.62
27210;BME280;14721;42.668;23.386;2023-04-01T06:26:57;94076.16;;;14.51;54.61
27210;BME280;14721;42.668;23.386;2023-04-01T06:41:08;94055.22;;;15.26;53.61
27210;BME280;14721;42.668;23.386;2023-04-01T06:49:18;94052.28;;;14.72;54.92
27210;BME280;14721;42.668;23.386;2023-04-01T06:51:55;94050.59;;;14.47;56.60
27210;BME280;14721;42.668;23.386;2023-04-01T06:55:06;94046.50;;;14.11;58.47
27210;BME280;14721;42.668;23.386;2023-04-01T06:57:42;94025.34;;;14.00;58.91
27210;BME280;14721;42.668;23.386;2023-04-01T07:00:27;94030.00;;;13.90;59.84
27210;BME280;14721;42.668;23.386;2023-04-01T07:03:00;94008.03;;;13.95;59.69
27210;BME280;14721;42.668;23.386;2023-04-01T07:05:30;94014.25;;;13.95;60.41
27210;BME280;14721;42.668;23.386;2023-04-01T07:08:01;94019.00;;;14.09;60.28
27210;BME280;14721;42.668;23.386;2023-04-01T07:10:47;94019.81;;;14.02;61.13
27210;BME280;14721;42.668;23.386;2023-04-01T07:13:49;94022.00;;;13.98;61.13
27210;BME280;14721;42.668;23.386;2023-04-01T07:16:20;94000.16;;;14.01;60.99
27210;BME280;14721;42.668;23.386;2023-04-01T07:18:58;94009.97;;;14.34;59.30
27210;BME280;14721;42.668;23.386;2023-04-01T07:24:34;93992.19;;;15.20;57.55
27210;BME280;14721;42.668;23.386;2023-04-01T07:27:02;93992.16;;;15.28;56.67
27210;BME280;14721;42.668;23.386;2023-04-01T07:29:27;94013.53;;;15.22;56.59
27210;BME280;14721;42.668;23.386;2023-04-01T07:37:31;94004.06;;;15.34;55.67
27210;BME280;14721;42.668;23.386;2023-04-01T07:50:19;94003.13;;;15.65;54.57
27210;BME280;14721;42.668;23.386;2023-04-01T07:52:55;94002.31;;;15.57;53.16
27210;BME280;14721;42.668;23.386;2023-04-01T08:00:59;93990.66;;;15.95;52.30
27210;BME280;14721;42.668;23.386;2023-04-01T08:03:33;93998.69;;;16.03;51.90
27210;BME280;14721;42.668;23.386;2023-04-01T08:06:26;93986.91;;;16.04;51.60
27210;BME280;14721;42.668;23.386;2023-04-01T08:17:32;93975.22;;;16.11;51.06
27210;BME280;14721;42.668;23.386;2023-04-01T08:20:18;93956.50;;;16.18;50.75
27210;BME280;14721;42.668;23.386;2023-04-01T08:22:58;93968.41;;;16.23;51.75
27210;BME280;14721;42.668;23.386;2023-04-01T08:25:28;93946.91;;;16.15;51.01
27210;BME280;14721;42.668;23.386;2023-04-01T08:28:09;93944.81;;;16.25;50.88
27210;BME280;14721;42.668;23.386;2023-04-01T08:30:49;93934.06;;;16.40;50.46
27210;BME280;14721;42.668;23.386;2023-04-01T08:33:30;93940.78;;;16.44;50.60
27210;BME280;14721;42.668;23.386;2023-04-01T08:39:08;93913.53;;;16.61;49.02
27210;BME280;14721;42.668;23.386;2023-04-01T08:56:20;93869.16;;;17.08;46.22
27210;BME280;14721;42.668;23.386;2023-04-01T09:07:18;93891.66;;;17.29;46.41
27210;BME280;14721;42.668;23.386;2023-04-01T09:10:18;93894.22;;;17.37;45.90
27210;BME280;14721;42.668;23.386;2023-04-01T09:26:44;93884.81;;;18.25;42.45
27210;BME280;14721;42.668;23.386;2023-04-01T09:34:57;93867.16;;;18.02;42.94
27210;BME280;14721;42.668;23.386;2023-04-01T09:37:34;93868.47;;;17.70;43.37
27210;BME280;14721;42.668;23.386;2023-04-01T09:48:04;93823.56;;;17.13;44.52
27210;BME280;14721;42.668;23.386;2023-04-01T09:56:27;93804.84;;;17.11;44.91
27210;BME280;14721;42.668;23.386;2023-04-01T10:02:19;93817.91;;;17.43;44.60
27210;BME280;14721;42.668;23.386;2023-04-01T10:11:12;93806.69;;;17.61;45.80
27210;BME280;14721;42.668;23.386;2023-04-01T10:45:00;93769.75;;;16.61;48.31
27210;BME280;14721;42.668;23.386;2023-04-01T10:53:41;93754.13;;;16.71;47.95
27210;BME280;14721;42.668;23.386;2023-04-01T10:59:28;93750.59;;;16.56;47.88
27210;BME280;14721;42.668;23.386;2023-04-01T11:23:28;93739.81;;;16.56;47.08
27210;BME280;14721;42.668;23.386;2023-04-01T11:26:29;93728.13;;;16.49;47.35
27210;BME280;14721;42.668;23.386;2023-04-01T11:29:24;93742.69;;;16.40;47.51
27210;BME280;14721;42.668;23.386;2023-04-01T11:41:13;93794.44;;;16.93;44.85
27210;BME280;14721;42.668;23.386;2023-04-01T11:46:22;93848.78;;;16.47;50.46
27210;BME280;14721;42.668;23.386;2023-04-01T11:49:21;93869.31;;;16.11;53.29
27210;BME280;14721;42.668;23.386;2023-04-01T11:52:24;93908.44;;;15.54;56.38
27210;BME280;14721;42.668;23.386;2023-04-01T12:01:19;93985.31;;;13.57;78.66
27210;BME280;14721;42.668;23.386;2023-04-01T12:09:48;93997.69;;;12.06;91.30
27210;BME280;14721;42.668;23.386;2023-04-01T12:15:16;93987.28;;;11.68;95.29
27210;BME280;14721;42.668;23.386;2023-04-01T12:20:49;93992.44;;;11.52;100.00
27210;BME280;14721;42.668;23.386;2023-04-01T12:23:44;93994.81;;;11.55;100.00
27210;BME280;14721;42.668;23.386;2023-04-01T12:26:30;93967.38;;;11.53;100.00
27210;BME280;14721;42.668;23.386;2023-04-01T12:43:23;94013.63;;;12.33;98.17
27210;BME280;14721;42.668;23.386;2023-04-01T12:52:14;94011.66;;;11.65;100.00
27210;BME280;14721;42.668;23.386;2023-04-01T13:01:16;94007.88;;;11.40;100.00
27210;BME280;14721;42.668;23.386;2023-04-01T13:08:43;93971.94;;;11.25;100.00
27210;BME280;14721;42.668;23.386;2023-04-01T13:11:22;93953.28;;;11.33;100.00
27210;BME280;14721;42.668;23.386;2023-04-01T13:16:25;93941.13;;;11.21;100.00
27210;BME280;14721;42.668;23.386;2023-04-01T13:35:05;93892.81;;;12.70;98.85
27210;BME280;14721;42.668;23.386;2023-04-01T13:38:00;93886.16;;;12.82;95.09
27210;BME280;14721;42.668;23.386;2023-04-01T14:02:24;93867.00;;;13.02;91.20
27210;BME280;14721;42.668;23.386;2023-04-01T14:08:26;93836.50;;;13.19;90.68
27210;BME280;14721;42.668;23.386;2023-04-01T14:11:08;93827.19;;;12.90;88.84
27210;BME280;14721;42.668;23.386;2023-04-01T14:16:29;93839.53;;;13.08;90.84
27210;BME280;14721;42.668;23.386;2023-04-01T14:44:46;93800.72;;;12.79;92.09
27210;BME280;14721;42.668;23.386;2023-04-01T14:47:51;93808.00;;;13.10;91.61
27210;BME280;14721;42.668;23.386;2023-04-01T14:50:28;93800.00;;;13.27;90.45
27210;BME280;14721;42.668;23.386;2023-04-01T14:55:53;93780.38;;;13.42;88.98
27210;BME280;14721;42.668;23.386;2023-04-01T14:58:21;93795.78;;;13.48;87.59
27210;BME280;14721;42.668;23.386;2023-04-01T15:09:35;93811.75;;;13.66;85.76
27210;BME280;14721;42.668;23.386;2023-04-01T15:12:29;93817.09;;;13.74;85.12
27210;BME280;14721;42.668;23.386;2023-04-01T15:18:08;93816.25;;;13.41;89.32
27210;BME280;14721;42.668;23.386;2023-04-01T15:29:02;93813.75;;;13.40;88.01
27210;BME280;14721;42.668;23.386;2023-04-01T15:31:49;93818.78;;;13.59;87.56
27210;BME280;14721;42.668;23.386;2023-04-01T15:34:42;93816.25;;;13.65;86.68
27210;BME280;14721;42.668;23.386;2023-04-01T15:37:17;93805.34;;;13.43;87.87
27210;BME280;14721;42.668;23.386;2023-04-01T15:49:57;93835.31;;;13.06;90.54
27210;BME280;14721;42.668;23.386;2023-04-01T15:55:30;93923.81;;;13.14;91.60
27210;BME280;14721;42.668;23.386;2023-04-01T16:11:59;94059.72;;;9.42;97.39
27210;BME280;14721;42.668;23.386;2023-04-01T16:20:03;94079.84;;;8.86;100.00
27210;BME280;14721;42.668;23.386;2023-04-01T16:25:36;94096.56;;;8.68;100.00
27210;BME280;14721;42.668;23.386;2023-04-01T16:28:24;94108.06;;;8.68;100.00
27210;BME280;14721;42.668;23.386;2023-04-01T16:31:25;94114.00;;;8.72;100.00
27210;BME280;14721;42.668;23.386;2023-04-01T16:34:27;94096.16;;;8.63;100.00
27210;BME280;14721;42.668;23.386;2023-04-01T16:37:15;94115.94;;;8.70;100.00
27210;BME280;14721;42.668;23.386;2023-04-01T16:42:50;94133.59;;;8.71;100.00
27210;BME280;14721;42.668;23.386;2023-04-01T16:48:15;94152.88;;;8.84;100.00
27210;BME280;14721;42.668;23.386;2023-04-01T16:50:59;94155.03;;;8.90;100.00
27210;BME280;14721;42.668;23.386;2023-04-01T16:53:41;94129.59;;;8.86;100.00
27210;BME280;14721;42.668;23.386;2023-04-01T16:56:15;94135.66;;;8.88;100.00
27210;BME280;14721;42.668;23.386;2023-04-01T16:58:55;94142.09;;;8.85;100.00
27210;BME280;14721;42.668;23.386;2023-04-01T17:04:49;94127.47;;;8.80;100.00
27210;BME280;14721;42.668;23.386;2023-04-01T17:21:04;94155.88;;;8.70;99.21
27210;BME280;14721;42.668;23.386;2023-04-01T17:23:37;94150.56;;;8.70;99.17
27210;BME280;14721;42.668;23.386;2023-04-01T17:29:06;94148.47;;;8.73;98.34
27210;BME280;14721;42.668;23.386;2023-04-01T17:32:34;94146.06;;;8.70;97.81
27210;BME280;14721;42.668;23.386;2023-04-01T17:37:54;94165.63;;;8.60;98.27
27210;BME280;14721;42.668;23.386;2023-04-01T17:43:16;94175.16;;;8.62;97.25
27210;BME280;14721;42.668;23.386;2023-04-01T17:45:55;94180.22;;;8.65;96.60
27210;BME280;14721;42.668;23.386;2023-04-01T17:48:36;94193.41;;;8.67;96.44
27210;BME280;14721;42.668;23.386;2023-04-01T18:04:37;94229.91;;;8.76;96.55
27210;BME280;14721;42.668;23.386;2023-04-01T18:15:49;94226.13;;;8.58;96.10
27210;BME280;14721;42.668;23.386;2023-04-01T18:23:55;94253.00;;;8.55;95.28
27210;BME280;14721;42.668;23.386;2023-04-01T18:26:27;94259.22;;;8.44;95.70
27210;BME280;14721;42.668;23.386;2023-04-01T18:31:47;94231.09;;;8.31;95.38
27210;BME280;14721;42.668;23.386;2023-04-01T18:34:58;94239.53;;;8.36;95.70
27210;BME280;14721;42.668;23.386;2023-04-01T18:37:30;94262.38;;;8.49;95.28
27210;BME280;14721;42.668;23.386;2023-04-01T18:40:27;94261.22;;;8.63;94.75
27210;BME280;14721;42.668;23.386;2023-04-01T18:45:31;94252.50;;;8.61;93.80
27210;BME280;14721;42.668;23.386;2023-04-01T19:16:42;94309.63;;;9.29;90.29
27210;BME280;14721;42.668;23.386;2023-04-01T19:19:29;94311.09;;;9.33;90.06
27210;BME280;14721;42.668;23.386;2023-04-01T19:22:12;94309.56;;;9.40;88.67
27210;BME280;14721;42.668;23.386;2023-04-01T19:25:20;94296.66;;;9.36;87.68
27210;BME280;14721;42.668;23.386;2023-04-01T19:27:53;94315.75;;;9.41;86.94
27210;BME280;14721;42.668;23.386;2023-04-01T19:30:39;94328.03;;;9.53;86.38
27210;BME280;14721;42.668;23.386;2023-04-01T19:36:48;94336.22;;;9.61;83.88
27210;BME280;14721;42.668;23.386;2023-04-01T19:42:05;94344.75;;;9.55;81.78
27210;BME280;14721;42.668;23.386;2023-04-01T19:44:44;94340.78;;;9.49;82.39
27210;BME280;14721;42.668;23.386;2023-04-01T19:47:19;94350.34;;;9.52;81.84
27210;BME280;14721;42.668;23.386;2023-04-01T19:50:21;94338.03;;;9.40;81.34
27210;BME280;14721;42.668;23.386;2023-04-01T19:52:54;94330.91;;;9.20;81.24
27210;BME280;14721;42.668;23.386;2023-04-01T20:00:41;94359.31;;;9.30;81.58
27210;BME280;14721;42.668;23.386;2023-04-01T20:14:38;94347.59;;;10.53;76.84
27210;BME280;14721;42.668;23.386;2023-04-01T20:17:25;94344.84;;;10.34;76.00
27210;BME280;14721;42.668;23.386;2023-04-01T20:20:02;94360.41;;;10.20;76.27
27210;BME280;14721;42.668;23.386;2023-04-01T20:25:15;94353.69;;;9.95;76.86
27210;BME280;14721;42.668;23.386;2023-04-01T20:33:01;94355.28;;;9.77;77.00
27210;BME280;14721;42.668;23.386;2023-04-01T20:36:05;94360.88;;;9.74;76.48
27210;BME280;14721;42.668;23.386;2023-04-01T20:50:23;94380.19;;;9.67;76.23
27210;BME280;14721;42.668;23.386;2023-04-01T20:58:48;94375.78;;;9.56;76.61
27210;BME280;14721;42.668;23.386;2023-04-01T21:06:58;94382.53;;;9.60;74.59
27210;BME280;14721;42.668;23.386;2023-04-01T21:35:16;94391.75;;;9.77;72.78
27210;BME280;14721;42.668;23.386;2023-04-01T21:38:31;94382.47;;;9.71;72.17
27210;BME280;14721;42.668;23.386;2023-04-01T21:44:08;94384.94;;;9.63;73.40
27210;BME280;14721;42.668;23.386;2023-04-01T21:49:25;94392.41;;;9.69;73.10
27210;BME280;14721;42.668;23.386;2023-04-01T22:00:01;94376.56;;;9.47;75.42
27210;BME280;14721;42.668;23.386;2023-04-01T22:13:50;94386.78;;;8.79;83.22
27210;BME280;14721;42.668;23.386;2023-04-01T22:16:43;94386.41;;;8.83;83.11
27210;BME280;14721;42.668;23.386;2023-04-01T22:19:40;94376.63;;;8.84;83.00
27210;BME280;14721;42.668;23.386;2023-04-01T22:27:29;94376.34;;;8.87;78.72
27210;BME280;14721;42.668;23.386;2023-04-01T22:30:17;94381.06;;;8.94;77.29
27210;BME280;14721;42.668;23.386;2023-04-01T22:33:16;94371.47;;;8.92;77.01
27210;BME280;14721;42.668;23.386;2023-04-01T22:47:40;94378.53;;;8.82;76.64
27210;BME280;14721;42.668;23.386;2023-04-01T22:53:02;94397.78;;;8.85;75.64
27210;BME280;14721;42.668;23.386;2023-04-01T22:55:38;94393.41;;;8.84;75.27
27210;BME280;14721;42.668;23.386;2023-04-01T22:58:13;94395.00;;;8.87;75.11
27210;BME280;14721;42.668;23.386;2023-04-01T23:00:55;94399.81;;;8.93;74.11
27210;BME280;14721;42.668;23.386;2023-04-01T23:03:40;94408.00;;;9.01;73.39
27210;BME280;14721;42.668;23.386;2023-04-01T23:09:07;94406.75;;;9.16;71.38
27210;BME280;14721;42.668;23.386;2023-04-01T23:11:58;94395.28;;;9.04;71.28
27210;BME280;14721;42.668;23.386;2023-04-01T23:17:18;94409.16;;;9.19;70.47
27210;BME280;14721;42.668;23.386;2023-04-01T23:20:10;94403.38;;;9.14;70.58
27210;BME280;14721;42.668;23.386;2023-04-01T23:25:47;94418.00;;;9.19;70.56
27210;BME280;14721;42.668;23.386;2023-04-01T23:36:53;94423.72;;;9.15;70.53
27210;BME280;14721;42.668;23.386;2023-04-01T23:39:31;94418.00;;;9.19;70.37
27210;BME280;14721;42.668;23.386;2023-04-01T23:42:13;94407.50;;;9.07;70.80
27210;BME280;14721;42.668;23.386;2023-04-01T23:45:00;94420.06;;;9.16;70.29
27210;BME280;14721;42.668;23.386;2023-04-01T23:47:35;94410.41;;;9.15;70.62
27210;BME280;14721;42.668;23.386;2023-04-01T23:50:16;94411.13;;;9.17;70.67
27210;BME280;14721;42.668;23.386;2023-04-01T23:52:51;94388.66;;;8.99;70.62
